createdAt,value
2022-09-20T00:01:27.531Z,48.40
2022-09-20T00:03:57.280Z,48.40
2022-09-20T00:06:28.652Z,48.40
2022-09-20T00:08:56.804Z,48.40
2022-09-20T00:11:30.130Z,48.40
2022-09-20T00:13:59.286Z,48.40
2022-09-20T00:16:32.637Z,48.40
2022-09-20T00:19:03.891Z,48.40
2022-09-20T00:21:32.309Z,48.40
2022-09-20T00:23:59.726Z,48.40
2022-09-20T00:26:28.320Z,48.40
2022-09-20T00:28:55.710Z,48.40
2022-09-20T00:31:23.043Z,48.40
2022-09-20T00:34:10.067Z,48.40
2022-09-20T00:36:37.081Z,48.40
2022-09-20T00:39:04.279Z,48.50
2022-09-20T00:41:32.505Z,48.50
2022-09-20T00:44:00.723Z,48.50
2022-09-20T00:46:44.646Z,48.50
2022-09-20T00:49:22.067Z,48.50
2022-09-20T00:51:55.529Z,48.60
2022-09-20T00:54:24.127Z,48.60
2022-09-20T00:56:51.992Z,48.60
2022-09-20T00:59:36.755Z,48.60
2022-09-20T01:02:16.091Z,48.60
2022-09-20T01:04:44.885Z,48.70
2022-09-20T01:07:16.312Z,48.60
2022-09-20T01:09:43.585Z,48.70
2022-09-20T01:12:15.141Z,48.70
2022-09-20T01:14:44.197Z,48.60
2022-09-20T01:17:12.897Z,48.60
2022-09-20T01:20:12.530Z,48.60
2022-09-20T01:23:14.839Z,48.50
2022-09-20T01:26:14.923Z,48.50
2022-09-20T01:28:45.335Z,48.50
2022-09-20T01:31:23.652Z,48.50
2022-09-20T01:33:57.611Z,48.40
2022-09-20T01:36:31.784Z,48.40
2022-09-20T01:39:16.857Z,48.50
2022-09-20T01:42:05.772Z,48.40
2022-09-20T01:44:58.331Z,48.40
2022-09-20T01:47:56.487Z,48.40
2022-09-20T01:50:34.324Z,48.40
2022-09-20T01:53:29.968Z,48.40
2022-09-20T01:56:32.481Z,48.40
2022-09-20T01:59:34.025Z,48.40
2022-09-20T02:02:40.793Z,48.50
2022-09-20T02:05:40.732Z,48.50
2022-09-20T02:08:29.129Z,48.50
2022-09-20T02:11:14.512Z,48.40
2022-09-20T02:14:08.946Z,48.50
2022-09-20T02:16:55.933Z,48.50
2022-09-20T02:19:33.840Z,48.50
2022-09-20T02:22:11.738Z,48.50
2022-09-20T02:25:06.441Z,48.50
2022-09-20T02:28:06.030Z,48.50
2022-09-20T02:30:52.201Z,48.60
2022-09-20T02:33:51.735Z,48.60
2022-09-20T02:36:41.919Z,48.60
2022-09-20T02:39:17.795Z,48.60
2022-09-20T02:42:24.531Z,48.70
2022-09-20T02:45:14.488Z,48.70
2022-09-20T02:47:44.220Z,48.70
2022-09-20T02:50:30.057Z,48.70
2022-09-20T02:53:36.899Z,48.70
2022-09-20T02:56:38.031Z,48.70
2022-09-20T02:59:32.057Z,48.70
2022-09-20T03:02:20.136Z,48.70
2022-09-20T03:05:24.087Z,48.60
2022-09-20T03:08:24.550Z,48.60
2022-09-20T03:11:04.247Z,48.60
2022-09-20T03:14:10.853Z,48.60
2022-09-20T03:17:17.948Z,48.50
2022-09-20T03:20:17.933Z,48.50
2022-09-20T03:23:19.413Z,48.50
2022-09-20T03:26:02.982Z,48.50
2022-09-20T03:28:53.453Z,48.50
2022-09-20T03:31:44.610Z,48.50
2022-09-20T03:34:49.722Z,48.50
2022-09-20T03:37:41.446Z,48.50
2022-09-20T03:40:46.662Z,48.60
2022-09-20T03:43:45.322Z,48.50
2022-09-20T03:46:28.192Z,48.60
2022-09-20T03:49:34.933Z,48.60
2022-09-20T03:52:41.367Z,48.50
2022-09-20T03:55:31.788Z,48.50
2022-09-20T03:58:08.884Z,48.50
2022-09-20T04:01:01.837Z,48.50
2022-09-20T04:03:53.806Z,48.60
2022-09-20T04:06:59.307Z,48.60
2022-09-20T04:09:50.073Z,48.60
2022-09-20T04:12:45.735Z,48.60
2022-09-20T04:15:40.360Z,48.70
2022-09-20T04:18:37.853Z,49.00
2022-09-20T04:21:23.845Z,49.30
2022-09-20T04:24:09.738Z,49.50
2022-09-20T04:26:41.786Z,49.50
2022-09-20T04:29:29.952Z,49.50
2022-09-20T04:32:18.097Z,49.40
2022-09-20T04:35:26.129Z,49.30
2022-09-20T04:37:54.603Z,49.20
2022-09-20T04:41:00.168Z,49.00
2022-09-20T04:44:07.635Z,48.90
2022-09-20T04:47:15.379Z,48.80
2022-09-20T04:50:22.321Z,48.70
2022-09-20T04:53:20.941Z,48.70
2022-09-20T04:56:03.316Z,48.70
2022-09-20T04:59:06.181Z,48.40
2022-09-20T05:02:09.497Z,48.50
2022-09-20T05:05:16.632Z,48.40
2022-09-20T05:08:14.413Z,48.20
2022-09-20T05:11:12.661Z,48.20
2022-09-20T05:14:24.916Z,48.10
2022-09-20T05:17:31.575Z,48.00
2022-09-20T05:20:34.370Z,47.90
2022-09-20T05:23:28.094Z,48.00
2022-09-20T05:26:34.802Z,48.00
2022-09-20T05:29:42.540Z,48.00
2022-09-20T05:32:29.338Z,47.90
2022-09-20T05:35:21.506Z,47.90
2022-09-20T05:38:11.651Z,47.80
2022-09-20T05:41:19.131Z,47.90
2022-09-20T05:44:22.557Z,48.00
2022-09-20T05:54:23.649Z,47.60
2022-09-20T05:57:17.000Z,47.30
2022-09-20T06:00:02.467Z,47.30
2022-09-20T06:03:02.139Z,47.30
2022-09-20T06:06:01.250Z,47.20
2022-09-20T06:08:53.380Z,46.70
2022-09-20T06:12:00.158Z,46.30
2022-09-20T06:14:51.754Z,46.00
2022-09-20T06:17:36.727Z,45.90
2022-09-20T06:20:25.421Z,45.80
2022-09-20T06:22:59.284Z,45.70
2022-09-20T06:25:41.298Z,45.70
2022-09-20T06:28:16.434Z,45.70
2022-09-20T06:30:55.770Z,45.60
2022-09-20T06:33:25.771Z,45.50
2022-09-20T06:36:35.096Z,45.40
2022-09-20T06:39:51.267Z,45.20
2022-09-20T06:42:18.494Z,45.00
2022-09-20T06:44:45.526Z,45.10
2022-09-20T06:47:14.065Z,45.30
2022-09-20T06:49:42.545Z,45.30
2022-09-20T06:52:15.246Z,45.30
2022-09-20T06:54:46.311Z,45.20
2022-09-20T06:57:19.843Z,45.10
2022-09-20T06:59:46.884Z,45.10
2022-09-20T07:02:13.958Z,45.00
2022-09-20T07:04:41.027Z,44.90
2022-09-20T07:07:09.738Z,44.90
2022-09-20T07:09:36.952Z,44.80
2022-09-20T07:12:04.994Z,44.80
2022-09-20T07:14:32.206Z,44.80
2022-09-20T07:16:59.200Z,44.80
2022-09-20T07:19:26.200Z,44.70
2022-09-20T07:21:54.123Z,44.70
2022-09-20T07:24:21.727Z,44.70
2022-09-20T07:27:00.969Z,44.80
2022-09-20T07:29:28.860Z,44.90
2022-09-20T07:31:56.969Z,44.80
2022-09-20T07:34:25.035Z,44.70
2022-09-20T07:36:52.476Z,44.80
2022-09-20T07:39:19.557Z,44.60
2022-09-20T07:41:48.675Z,44.50
2022-09-20T07:44:27.436Z,44.30
2022-09-20T07:46:58.128Z,44.20
2022-09-20T07:49:26.340Z,43.90
2022-09-20T07:51:54.200Z,43.80
2022-09-20T07:54:21.709Z,43.60
2022-09-20T07:56:49.147Z,43.50
2022-09-20T07:59:16.688Z,43.40
2022-09-20T08:01:44.016Z,43.80
2022-09-20T08:04:11.714Z,43.30
2022-09-20T08:06:42.227Z,43.20
2022-09-20T08:09:11.466Z,42.70
2022-09-20T08:11:40.653Z,42.70
2022-09-20T08:14:09.248Z,42.70
2022-09-20T08:16:41.988Z,42.70
2022-09-20T08:19:14.207Z,42.70
2022-09-20T08:21:41.223Z,43.10
2022-09-20T08:24:08.287Z,42.60
2022-09-20T08:26:36.021Z,42.70
2022-09-20T08:29:05.389Z,42.40
2022-09-20T08:31:37.248Z,42.20
2022-09-20T08:34:06.915Z,42.20
2022-09-20T08:36:36.990Z,42.10
2022-09-20T08:42:04.907Z,42.10
2022-09-20T08:44:35.836Z,41.90
2022-09-20T08:47:16.146Z,41.80
2022-09-20T08:49:46.135Z,41.80
2022-09-20T08:52:21.143Z,41.80
2022-09-20T08:54:48.220Z,41.50
2022-09-20T08:57:18.193Z,41.50
2022-09-20T08:59:45.797Z,41.10
2022-09-20T09:02:17.273Z,40.90
2022-09-20T09:04:45.566Z,40.80
2022-09-20T09:07:17.873Z,40.60
2022-09-20T09:09:47.443Z,40.50
2022-09-20T09:12:22.241Z,40.40
2022-09-20T09:14:57.670Z,40.30
2022-09-20T09:17:27.651Z,40.20
2022-09-20T09:19:56.517Z,40.00
2022-09-20T09:22:35.351Z,39.80
2022-09-20T09:25:24.389Z,39.60
2022-09-20T09:28:13.427Z,39.60
2022-09-20T09:30:47.729Z,39.70
2022-09-20T09:33:30.026Z,39.70
2022-09-20T09:36:16.155Z,40.00
2022-09-20T09:38:46.322Z,40.00
2022-09-20T09:41:29.954Z,40.00
2022-09-20T09:44:05.049Z,39.80
2022-09-20T09:46:34.915Z,39.90
2022-09-20T09:49:24.378Z,40.00
2022-09-20T09:52:15.510Z,40.00
2022-09-20T09:54:52.059Z,40.00
2022-09-20T09:57:54.034Z,40.00
2022-09-20T10:00:23.702Z,39.90
2022-09-20T10:03:19.530Z,39.90
2022-09-20T10:06:23.595Z,40.00
2022-09-20T10:09:14.764Z,39.70
2022-09-20T10:12:22.358Z,39.70
2022-09-20T10:15:07.984Z,39.80
2022-09-20T10:17:57.539Z,39.80
2022-09-20T10:20:47.570Z,39.80
2022-09-20T10:26:53.600Z,39.80
2022-09-20T10:29:46.992Z,39.70
2022-09-20T10:32:42.058Z,39.70
2022-09-20T10:35:45.644Z,39.40
2022-09-20T10:38:27.954Z,39.50
2022-09-20T10:41:50.268Z,39.40
2022-09-20T10:44:53.068Z,39.40
2022-09-20T10:47:43.893Z,39.60
2022-09-20T10:50:39.289Z,39.50
2022-09-20T10:53:27.328Z,39.40
2022-09-20T10:56:24.159Z,39.40
2022-09-20T10:59:23.892Z,39.40
2022-09-20T11:02:14.482Z,39.40
2022-09-20T11:04:59.849Z,39.50
2022-09-20T11:07:52.709Z,39.10
2022-09-20T11:10:37.957Z,39.10
2022-09-20T11:13:40.381Z,39.10
2022-09-20T11:16:16.172Z,38.80
2022-09-20T11:19:00.639Z,39.00
2022-09-20T11:21:36.596Z,39.00
2022-09-20T11:24:31.069Z,39.10
2022-09-20T11:27:23.425Z,39.40
2022-09-20T11:30:07.342Z,39.20
2022-09-20T11:33:15.290Z,39.10
2022-09-20T11:35:52.634Z,39.00
2022-09-20T11:38:33.070Z,39.20
2022-09-20T11:41:26.882Z,39.20
2022-09-20T11:44:00.618Z,39.30
2022-09-20T11:46:40.501Z,39.40
2022-09-20T11:49:25.167Z,39.30
2022-09-20T11:52:20.877Z,39.30
2022-09-20T11:55:18.255Z,39.40
2022-09-20T11:57:46.777Z,39.20
2022-09-20T12:00:13.908Z,39.20
2022-09-20T12:02:53.180Z,39.40
2022-09-20T12:05:39.189Z,39.50
2022-09-20T12:08:17.943Z,39.50
2022-09-20T12:11:00.217Z,39.20
2022-09-20T12:13:28.168Z,39.40
2022-09-20T12:16:05.125Z,39.40
2022-09-20T12:19:05.526Z,39.60
2022-09-20T12:22:12.788Z,39.50
2022-09-20T12:24:45.111Z,39.60
2022-09-20T12:27:52.946Z,39.60
2022-09-20T12:30:22.170Z,39.50
2022-09-20T12:32:52.307Z,39.60
2022-09-20T12:35:39.214Z,39.60
2022-09-20T12:38:31.364Z,39.70
2022-09-20T12:41:08.631Z,39.70
2022-09-20T12:43:46.842Z,39.70
2022-09-20T12:46:25.617Z,39.70
2022-09-20T12:49:46.200Z,39.80
2022-09-20T12:52:54.098Z,39.80
2022-09-20T12:55:50.405Z,39.80
2022-09-20T12:58:25.318Z,39.80
2022-09-20T13:01:32.410Z,39.80
2022-09-20T13:04:40.124Z,39.80
2022-09-20T13:07:33.479Z,39.90
2022-09-20T13:10:24.208Z,40.10
2022-09-20T13:12:57.695Z,40.20
2022-09-20T13:15:25.058Z,40.20
2022-09-20T13:17:55.285Z,40.30
2022-09-20T13:20:28.190Z,40.30
2022-09-20T13:23:00.137Z,40.40
2022-09-20T13:25:28.781Z,40.40
2022-09-20T13:28:21.350Z,40.40
2022-09-20T13:30:48.516Z,40.30
2022-09-20T13:33:25.252Z,40.40
2022-09-20T13:35:57.088Z,40.40
2022-09-20T13:38:28.184Z,40.40
2022-09-20T13:41:06.480Z,40.40
2022-09-20T13:43:43.652Z,40.50
2022-09-20T13:46:13.661Z,40.50
2022-09-20T13:48:40.970Z,40.40
2022-09-20T13:51:25.846Z,40.30
2022-09-20T13:53:53.687Z,40.30
2022-09-20T13:56:28.814Z,40.30
2022-09-20T13:58:59.147Z,40.30
2022-09-20T14:01:34.984Z,39.80
2022-09-20T14:04:09.280Z,39.90
2022-09-20T14:06:36.871Z,40.10
2022-09-20T14:09:11.141Z,40.30
2022-09-20T14:11:39.527Z,40.30
2022-09-20T14:14:08.128Z,40.40
2022-09-20T14:16:39.895Z,40.50
2022-09-20T14:19:08.190Z,40.50
2022-09-20T14:21:38.396Z,40.70
2022-09-20T14:24:24.924Z,41.10
2022-09-20T14:27:26.268Z,41.20
2022-09-20T14:29:54.636Z,41.20
2022-09-20T14:32:43.250Z,41.10
2022-09-20T14:35:20.668Z,41.10
2022-09-20T14:38:00.531Z,41.00
2022-09-20T14:40:30.572Z,41.20
2022-09-20T14:43:03.759Z,41.30
2022-09-20T14:45:37.741Z,41.30
2022-09-20T14:48:31.389Z,41.30
2022-09-20T14:51:22.349Z,41.40
2022-09-20T14:54:13.943Z,41.50
2022-09-20T14:56:49.065Z,41.60
2022-09-20T14:59:30.387Z,41.70
2022-09-20T15:02:13.947Z,41.70
2022-09-20T15:04:51.429Z,41.90
2022-09-20T15:07:18.611Z,42.00
2022-09-20T15:09:45.704Z,42.00
2022-09-20T15:12:16.101Z,42.20
2022-09-20T15:14:43.152Z,42.30
2022-09-20T15:17:19.294Z,42.40
2022-09-20T15:19:47.913Z,42.60
2022-09-20T15:22:15.594Z,42.70
2022-09-20T15:24:43.079Z,42.90
2022-09-20T15:27:12.261Z,42.90
2022-09-20T15:29:39.324Z,43.00
2022-09-20T15:32:06.791Z,43.30
2022-09-20T15:34:33.788Z,43.50
2022-09-20T15:37:00.957Z,43.80
2022-09-20T15:39:28.136Z,44.00
2022-09-20T15:41:55.191Z,44.00
2022-09-20T15:44:22.276Z,44.40
2022-09-20T15:46:51.097Z,44.80
2022-09-20T15:49:18.152Z,45.20
2022-09-20T15:51:46.423Z,45.10
2022-09-20T15:54:14.834Z,45.00
2022-09-20T15:56:42.399Z,44.80
2022-09-20T15:59:11.303Z,44.70
2022-09-20T16:01:40.880Z,44.70
2022-09-20T16:04:13.570Z,44.70
2022-09-20T16:06:42.558Z,44.70
2022-09-20T16:09:10.196Z,44.70
2022-09-20T16:11:37.788Z,44.80
2022-09-20T16:14:05.661Z,44.80
2022-09-20T16:16:39.699Z,44.90
2022-09-20T16:19:17.559Z,45.10
2022-09-20T16:21:50.548Z,45.50
2022-09-20T16:24:24.622Z,45.80
2022-09-20T16:26:51.832Z,46.20
2022-09-20T16:29:19.665Z,48.30
2022-09-20T16:31:48.440Z,50.00
2022-09-20T16:34:19.359Z,49.80
2022-09-20T16:36:47.895Z,50.40
2022-09-20T16:39:18.156Z,50.50
2022-09-20T16:41:49.465Z,50.70
2022-09-20T16:44:16.670Z,51.10
2022-09-20T16:46:44.674Z,50.90
2022-09-20T16:49:13.217Z,50.30
2022-09-20T16:51:41.883Z,49.80
2022-09-20T16:54:12.481Z,49.50
2022-09-20T16:56:41.891Z,49.00
2022-09-20T16:59:09.454Z,48.80
2022-09-20T17:01:37.112Z,48.50
2022-09-20T17:04:05.600Z,48.20
2022-09-20T17:06:34.533Z,48.10
2022-09-20T17:09:02.340Z,48.00
2022-09-20T17:11:32.566Z,47.90
2022-09-20T17:14:00.222Z,47.90
2022-09-20T17:16:32.245Z,48.00
2022-09-20T17:19:02.931Z,47.90
2022-09-20T17:21:31.242Z,47.90
2022-09-20T17:23:59.693Z,48.00
2022-09-20T17:26:31.497Z,48.00
2022-09-20T17:28:59.290Z,48.00
2022-09-20T17:31:30.397Z,48.00
2022-09-20T17:34:00.267Z,48.00
2022-09-20T17:36:29.187Z,48.10
2022-09-20T17:39:02.985Z,48.00
2022-09-20T17:41:31.185Z,48.10
2022-09-20T17:44:00.001Z,48.00
2022-09-20T17:46:33.061Z,48.00
2022-09-20T17:49:02.778Z,48.10
2022-09-20T17:51:45.080Z,48.00
2022-09-20T17:54:14.127Z,48.00
2022-09-20T17:56:43.735Z,48.00
2022-09-20T17:59:11.921Z,48.00
2022-09-20T18:01:40.619Z,48.00
2022-09-20T18:04:08.818Z,47.90
2022-09-20T18:06:38.803Z,47.90
2022-09-20T18:09:08.627Z,47.90
2022-09-20T18:11:39.334Z,47.90
2022-09-20T18:14:10.332Z,47.90
2022-09-20T18:16:38.607Z,47.90
2022-09-20T18:19:07.356Z,47.90
2022-09-20T18:21:36.209Z,47.80
2022-09-20T18:24:06.510Z,47.80
2022-09-20T18:26:33.860Z,47.80
2022-09-20T18:29:12.633Z,47.80
2022-09-20T18:31:49.117Z,47.80
2022-09-20T18:34:21.995Z,47.80
2022-09-20T18:36:53.279Z,47.80
2022-09-20T18:39:25.692Z,47.80
2022-09-20T18:41:53.368Z,47.80
2022-09-20T18:44:22.495Z,47.80
2022-09-20T18:46:53.135Z,47.90
2022-09-20T18:49:21.690Z,47.80
2022-09-20T18:51:49.414Z,47.90
2022-09-20T18:54:16.902Z,47.90
2022-09-20T18:56:51.232Z,47.90
2022-09-20T18:59:24.382Z,47.90
2022-09-20T19:02:16.084Z,47.90
2022-09-20T19:05:23.739Z,47.90
2022-09-20T19:08:18.655Z,47.90
2022-09-20T19:10:58.830Z,47.90
2022-09-20T19:13:48.765Z,47.90
2022-09-20T19:16:34.777Z,47.90
2022-09-20T19:19:33.897Z,47.90
2022-09-20T19:22:14.972Z,47.90
2022-09-20T19:25:03.518Z,47.80
2022-09-20T19:27:30.796Z,47.80
2022-09-20T19:29:58.174Z,47.70
2022-09-20T19:32:27.416Z,47.70
2022-09-20T19:35:02.180Z,47.70
2022-09-20T19:38:12.435Z,47.70
2022-09-20T19:41:02.849Z,47.70
2022-09-20T19:43:44.795Z,47.70
2022-09-20T19:46:40.356Z,47.70
2022-09-20T19:49:16.957Z,47.70
2022-09-20T19:51:44.998Z,47.70
2022-09-20T19:54:15.019Z,47.80
2022-09-20T19:56:55.740Z,47.80
2022-09-20T19:59:24.848Z,47.80
2022-09-20T20:01:53.105Z,47.70
2022-09-20T20:04:21.449Z,47.80
2022-09-20T20:07:14.212Z,47.80
2022-09-20T20:09:55.143Z,47.80
2022-09-20T20:12:53.327Z,47.80
2022-09-20T20:15:45.557Z,47.80
2022-09-20T20:18:51.585Z,47.80
2022-09-20T20:21:36.245Z,47.90
2022-09-20T20:24:29.068Z,47.90
2022-09-20T20:26:56.048Z,47.80
2022-09-20T20:29:23.047Z,47.80
2022-09-20T20:31:50.075Z,47.90
2022-09-20T20:34:17.532Z,47.90
2022-09-20T20:36:44.750Z,47.90
2022-09-20T20:39:12.311Z,47.90
2022-09-20T20:41:40.748Z,48.00
2022-09-20T20:44:07.797Z,48.00
2022-09-20T20:46:36.121Z,48.50
2022-09-20T20:49:04.090Z,48.50
2022-09-20T20:51:33.426Z,48.00
2022-09-20T20:54:00.521Z,48.00
2022-09-20T20:56:30.128Z,48.00
2022-09-20T20:59:01.464Z,48.10
2022-09-20T21:01:31.055Z,48.00
2022-09-20T21:03:58.937Z,48.00
2022-09-20T21:06:30.241Z,48.00
2022-09-20T21:08:57.203Z,48.10
2022-09-20T21:11:31.185Z,48.00
2022-09-20T21:14:00.647Z,48.10
2022-09-20T21:16:30.472Z,48.00
2022-09-20T21:18:58.503Z,47.90
2022-09-20T21:21:31.220Z,47.90
2022-09-20T21:24:00.177Z,47.90
2022-09-20T21:26:32.015Z,47.90
2022-09-20T21:29:01.385Z,47.90
2022-09-20T21:31:30.822Z,47.90
2022-09-20T21:33:58.300Z,47.90
2022-09-20T21:36:27.690Z,47.90
2022-09-20T21:38:54.976Z,47.90
2022-09-20T21:41:24.491Z,47.90
2022-09-20T21:43:56.317Z,47.90
2022-09-20T21:46:28.446Z,47.90
2022-09-20T21:48:57.492Z,47.90
2022-09-20T21:51:25.938Z,47.90
2022-09-20T21:53:58.183Z,47.90
2022-09-20T21:56:31.340Z,47.90
2022-09-20T21:58:59.208Z,47.90
2022-09-20T22:01:28.177Z,47.90
2022-09-20T22:03:59.197Z,47.80
2022-09-20T22:06:28.727Z,47.90
2022-09-20T22:08:58.557Z,47.90
2022-09-20T22:11:28.081Z,47.90
2022-09-20T22:13:56.112Z,47.90
2022-09-20T22:16:27.382Z,47.90
2022-09-20T22:18:56.139Z,47.90
2022-09-20T22:21:29.325Z,47.90
2022-09-20T22:23:58.917Z,48.50
2022-09-20T22:26:28.798Z,47.90
2022-09-20T22:28:55.968Z,47.90
2022-09-20T22:31:26.057Z,48.00
2022-09-20T22:34:05.088Z,47.90
2022-09-20T22:36:35.415Z,48.00
2022-09-20T22:39:02.992Z,48.00
2022-09-20T22:41:29.992Z,48.00
2022-09-20T22:43:57.259Z,48.00
2022-09-20T22:46:26.795Z,48.00
2022-09-20T22:48:53.977Z,48.10
2022-09-20T22:51:26.375Z,48.10
2022-09-20T22:53:53.640Z,48.10
2022-09-20T22:56:25.077Z,48.10
2022-09-20T22:58:54.406Z,48.10
2022-09-20T23:01:32.790Z,48.10
2022-09-20T23:04:09.385Z,48.10
2022-09-20T23:06:41.932Z,48.10
2022-09-20T23:09:12.213Z,48.10
2022-09-20T23:11:42.094Z,48.10
2022-09-20T23:14:12.211Z,48.00
2022-09-20T23:16:39.763Z,48.00
2022-09-20T23:19:08.765Z,47.90
2022-09-20T23:21:38.369Z,47.90
2022-09-20T23:24:08.085Z,47.90
2022-09-20T23:26:37.018Z,47.90
2022-09-20T23:29:07.390Z,47.90
2022-09-20T23:31:36.580Z,47.90
2022-09-20T23:34:06.264Z,47.80
2022-09-20T23:36:35.662Z,47.90
2022-09-20T23:39:02.787Z,47.90
2022-09-20T23:41:30.519Z,47.90
2022-09-20T23:43:57.776Z,48.40
2022-09-20T23:46:26.804Z,47.80
2022-09-20T23:48:54.277Z,47.80
2022-09-20T23:51:24.572Z,47.80
2022-09-20T23:53:51.871Z,47.80
2022-09-20T23:56:19.702Z,47.80
2022-09-20T23:58:47.239Z,47.80
